sensor_id;sensor_type;location;lat;lon;timestamp;pressure;altitude;pressure_sealevel;temperature;humidity
51986;BME280;38002;53.296;6.600;2023-12-14T00:01:47;101311.06;;;4.24;100.00
51986;BME280;38002;53.296;6.600;2023-12-14T00:06:48;101337.13;;;4.24;100.00
51986;BME280;38002;53.296;6.600;2023-12-14T00:11:49;101355.00;;;4.25;100.00
51986;BME280;38002;53.296;6.600;2023-12-14T00:16:49;101354.91;;;4.26;100.00
51986;BME280;38002;53.296;6.600;2023-12-14T00:21:50;101344.34;;;4.23;100.00
51986;BME280;38002;53.296;6.600;2023-12-14T00:26:50;101352.63;;;4.20;100.00
51986;BME280;38002;53.296;6.600;2023-12-14T00:31:51;101366.88;;;4.22;100.00
51986;BME280;38002;53.296;6.600;2023-12-14T00:36:51;101370.28;;;4.24;100.00
51986;BME280;38002;53.296;6.600;2023-12-14T00:41:52;101367.06;;;4.19;100.00
51986;BME280;38002;53.296;6.600;2023-12-14T00:46:52;101381.91;;;4.25;100.00
51986;BME280;38002;53.296;6.600;2023-12-14T00:51:52;101391.59;;;4.27;100.00
51986;BME280;38002;53.296;6.600;2023-12-14T00:56:53;101400.44;;;4.29;100.00
51986;BME280;38002;53.296;6.600;2023-12-14T01:01:53;101404.84;;;4.30;100.00
51986;BME280;38002;53.296;6.600;2023-12-14T01:06:54;101418.50;;;4.27;100.00
51986;BME280;38002;53.296;6.600;2023-12-14T01:11:54;101421.97;;;4.29;100.00
51986;BME280;38002;53.296;6.600;2023-12-14T01:16:54;101426.41;;;4.30;100.00
51986;BME280;38002;53.296;6.600;2023-12-14T01:21:55;101422.84;;;4.30;100.00
51986;BME280;38002;53.296;6.600;2023-12-14T01:26:55;101446.09;;;4.31;100.00
51986;BME280;38002;53.296;6.600;2023-12-14T01:31:56;101452.34;;;4.31;100.00
51986;BME280;38002;53.296;6.600;2023-12-14T01:36:56;101461.38;;;4.30;100.00
51986;BME280;38002;53.296;6.600;2023-12-14T01:41:57;101471.28;;;4.30;100.00
51986;BME280;38002;53.296;6.600;2023-12-14T01:46:57;101477.53;;;4.30;100.00
51986;BME280;38002;53.296;6.600;2023-12-14T01:51:57;101473.88;;;4.31;100.00
51986;BME280;38002;53.296;6.600;2023-12-14T01:56:58;101472.16;;;4.30;100.00
51986;BME280;38002;53.296;6.600;2023-12-14T02:01:58;101486.56;;;4.29;100.00
51986;BME280;38002;53.296;6.600;2023-12-14T02:06:59;101499.16;;;4.29;100.00
51986;BME280;38002;53.296;6.600;2023-12-14T02:12:00;101504.47;;;4.30;100.00
51986;BME280;38002;53.296;6.600;2023-12-14T02:17:01;101504.47;;;4.30;100.00
51986;BME280;38002;53.296;6.600;2023-12-14T02:22:01;101512.31;;;4.33;100.00
51986;BME280;38002;53.296;6.600;2023-12-14T02:27:02;101523.09;;;4.33;100.00
51986;BME280;38002;53.296;6.600;2023-12-14T02:32:03;101528.69;;;4.30;100.00
51986;BME280;38002;53.296;6.600;2023-12-14T02:37:03;101530.19;;;4.34;100.00
51986;BME280;38002;53.296;6.600;2023-12-14T02:42:04;101527.38;;;4.36;100.00
51986;BME280;38002;53.296;6.600;2023-12-14T02:47:04;101543.44;;;4.37;100.00
51986;BME280;38002;53.296;6.600;2023-12-14T02:52:05;101541.53;;;4.39;100.00
51986;BME280;38002;53.296;6.600;2023-12-14T02:57:06;101538.69;;;4.41;100.00
51986;BME280;38002;53.296;6.600;2023-12-14T03:02:06;101547.66;;;4.41;100.00
51986;BME280;38002;53.296;6.600;2023-12-14T03:07:07;101557.53;;;4.41;100.00
51986;BME280;38002;53.296;6.600;2023-12-14T03:12:07;101559.59;;;4.37;100.00
51986;BME280;38002;53.296;6.600;2023-12-14T03:17:08;101572.97;;;4.39;100.00
51986;BME280;38002;53.296;6.600;2023-12-14T03:22:13;101590.94;;;4.38;100.00
51986;BME280;38002;53.296;6.600;2023-12-14T03:27:13;101583.09;;;4.35;100.00
51986;BME280;38002;53.296;6.600;2023-12-14T03:32:14;101587.47;;;4.36;100.00
51986;BME280;38002;53.296;6.600;2023-12-14T03:37:15;101599.97;;;4.37;100.00
51986;BME280;38002;53.296;6.600;2023-12-14T03:42:15;101598.16;;;4.38;100.00
51986;BME280;38002;53.296;6.600;2023-12-14T03:47:15;101608.06;;;4.37;100.00
51986;BME280;38002;53.296;6.600;2023-12-14T03:52:16;101611.72;;;4.36;100.00
51986;BME280;38002;53.296;6.600;2023-12-14T03:57:16;101618.19;;;4.34;100.00
51986;BME280;38002;53.296;6.600;2023-12-14T04:02:17;101615.38;;;4.35;100.00
51986;BME280;38002;53.296;6.600;2023-12-14T04:07:17;101620.78;;;4.35;100.00
51986;BME280;38002;53.296;6.600;2023-12-14T04:12:18;101624.44;;;4.34;100.00
51986;BME280;38002;53.296;6.600;2023-12-14T04:17:18;101635.19;;;4.34;100.00
51986;BME280;38002;53.296;6.600;2023-12-14T04:22:19;101646.06;;;4.33;100.00
51986;BME280;38002;53.296;6.600;2023-12-14T04:27:19;101649.63;;;4.33;100.00
51986;BME280;38002;53.296;6.600;2023-12-14T04:32:20;101650.47;;;4.34;100.00
51986;BME280;38002;53.296;6.600;2023-12-14T04:37:21;101661.25;;;4.34;100.00
51986;BME280;38002;53.296;6.600;2023-12-14T04:42:22;101671.94;;;4.35;100.00
51986;BME280;38002;53.296;6.600;2023-12-14T04:47:22;101672.75;;;4.36;100.00
51986;BME280;38002;53.296;6.600;2023-12-14T04:52:23;101681.72;;;4.36;100.00
51986;BME280;38002;53.296;6.600;2023-12-14T04:57:23;101687.97;;;4.37;100.00
51986;BME280;38002;53.296;6.600;2023-12-14T05:02:23;101692.38;;;4.38;100.00
51986;BME280;38002;53.296;6.600;2023-12-14T05:07:24;101711.16;;;4.39;100.00
51986;BME280;38002;53.296;6.600;2023-12-14T05:12:25;101714.59;;;4.41;100.00
51986;BME280;38002;53.296;6.600;2023-12-14T05:17:27;101718.13;;;4.42;100.00
51986;BME280;38002;53.296;6.600;2023-12-14T05:22:27;101731.50;;;4.43;100.00
51986;BME280;38002;53.296;6.600;2023-12-14T05:27:28;101741.22;;;4.46;100.00
51986;BME280;38002;53.296;6.600;2023-12-14T05:32:28;101740.34;;;4.45;100.00
51986;BME280;38002;53.296;6.600;2023-12-14T05:37:29;101741.22;;;4.46;100.00
51986;BME280;38002;53.296;6.600;2023-12-14T05:42:29;101754.56;;;4.47;100.00
51986;BME280;38002;53.296;6.600;2023-12-14T05:47:29;101769.78;;;4.48;100.00
51986;BME280;38002;53.296;6.600;2023-12-14T05:52:34;101774.38;;;4.46;100.00
51986;BME280;38002;53.296;6.600;2023-12-14T05:57:35;101785.94;;;4.48;100.00
51986;BME280;38002;53.296;6.600;2023-12-14T06:02:35;101793.25;;;4.46;100.00
51986;BME280;38002;53.296;6.600;2023-12-14T06:07:37;101799.19;;;4.51;100.00
51986;BME280;38002;53.296;6.600;2023-12-14T06:12:38;101804.56;;;4.51;100.00
51986;BME280;38002;53.296;6.600;2023-12-14T06:17:39;101802.75;;;4.52;100.00
51986;BME280;38002;53.296;6.600;2023-12-14T06:22:40;101815.34;;;4.51;100.00
51986;BME280;38002;53.296;6.600;2023-12-14T06:27:41;101819.00;;;4.50;100.00
51986;BME280;38002;53.296;6.600;2023-12-14T06:32:42;101836.91;;;4.51;100.00
51986;BME280;38002;53.296;6.600;2023-12-14T06:37:42;101840.53;;;4.50;100.00
51986;BME280;38002;53.296;6.600;2023-12-14T06:42:43;101840.53;;;4.50;100.00
51986;BME280;38002;53.296;6.600;2023-12-14T06:47:43;101842.50;;;4.48;100.00
51986;BME280;38002;53.296;6.600;2023-12-14T06:52:46;101848.06;;;4.45;100.00
51986;BME280;38002;53.296;6.600;2023-12-14T06:57:47;101862.28;;;4.47;100.00
51986;BME280;38002;53.296;6.600;2023-12-14T07:02:47;101872.94;;;4.49;100.00
51986;BME280;38002;53.296;6.600;2023-12-14T07:07:47;101872.00;;;4.50;100.00
51986;BME280;38002;53.296;6.600;2023-12-14T07:12:48;101881.91;;;4.49;100.00
51986;BME280;38002;53.296;6.600;2023-12-14T07:17:49;101883.63;;;4.50;100.00
51986;BME280;38002;53.296;6.600;2023-12-14T07:22:49;101888.06;;;4.51;100.00
51986;BME280;38002;53.296;6.600;2023-12-14T07:27:50;101906.91;;;4.51;100.00
51986;BME280;38002;53.296;6.600;2023-12-14T07:32:52;101908.75;;;4.51;100.00
51986;BME280;38002;53.296;6.600;2023-12-14T07:37:52;101901.75;;;4.48;100.00
